Angleton, Texas
Current Conditions -  °F | °C
As of 9:53 PM on Thursday 18 Dec 2014 (Local Time) from KLBX Reporting Station
Haze Haze  
Wind Chill: 17°   Ceiling: 300
Heat Index: 17°   Visibility: 4mi
Dew Point: 17°   Wind: 8mph
Humidity: 100%   Direction: 60°ENE
Pressure: 30.05"   Gusts: NA
Location:  29.16°N, 95.43°W
Report Text: KLBX 190353Z AUTO 06007KT 4SM BR OVC003 17/17 A3005 RMK AO2 RAE43 SLP175 P0003 T01670167
Loading
Personal Weather Stations






























Interactive Weather Map New forecast layout! Learn more

10-Day Weather Forecast

Advertisements
Track Severe Weather on mobile